Time;durP1;ratioP1;P1;durP2;ratioP2;P2;SDS_P1;SDS_P2;PMS_P1;PMS_P2;Temp;Humidity;BMP_temperature;BMP_pressure;BME280_temperature;BME280_humidity;BME280_pressure;Samples;Min_cycle;Max_cycle;Signal;HPM_P1;HPM_P2
2021/07/16 00:01:11;;;;;;;13.27;10.60;;;13.70;99.90;;;;;;4987930;28;20043;-91
2021/07/16 00:03:58;;;;;;;15.50;12.20;;;13.60;99.90;;;;;;4993099;28;20565;-89
2021/07/16 00:06:48;;;;;;;19.67;11.90;;;13.50;99.90;;;;;;4994109;28;20492;-90
2021/07/16 00:09:35;;;;;;;20.65;12.80;;;13.50;99.90;;;;;;4988251;28;20046;-91
2021/07/16 00:12:25;;;;;;;18.73;13.52;;;13.50;99.90;;;;;;4978453;28;20125;-91
2021/07/16 00:15:15;;;;;;;20.63;14.57;;;13.60;99.90;;;;;;4970790;28;20047;-89
2021/07/16 00:18:05;;;;;;;27.25;15.50;;;13.70;99.90;;;;;;4979703;28;20077;-89
2021/07/16 00:20:52;;;;;;;24.08;15.80;;;13.70;99.90;;;;;;4976822;28;20050;-89
2021/07/16 00:23:43;;;;;;;28.30;18.08;;;13.70;99.90;;;;;;4990693;28;20053;-89
2021/07/16 00:26:30;;;;;;;27.50;19.25;;;13.80;99.90;;;;;;4979185;28;20042;-88
2021/07/16 00:29:20;;;;;;;31.40;18.85;;;13.80;99.90;;;;;;4970710;28;20050;-88
2021/07/16 00:32:07;;;;;;;27.08;18.65;;;13.80;99.90;;;;;;4993259;28;20133;-88
2021/07/16 00:34:55;;;;;;;26.95;17.48;;;13.70;99.90;;;;;;4983694;28;20054;-89
2021/07/16 00:37:42;;;;;;;24.67;17.20;;;13.60;99.90;;;;;;4992733;28;20606;-89
2021/07/16 00:40:29;;;;;;;23.95;17.17;;;13.50;99.90;;;;;;4986104;28;20494;-89
2021/07/16 00:43:17;;;;;;;29.08;17.92;;;13.40;99.90;;;;;;4990705;28;20051;-89
2021/07/16 00:46:04;;;;;;;30.58;19.23;;;13.40;99.90;;;;;;4978005;28;20132;-90
2021/07/16 00:48:52;;;;;;;33.08;19.13;;;13.40;99.90;;;;;;4983300;28;20047;-90
2021/07/16 00:51:40;;;;;;;26.98;17.98;;;13.30;99.90;;;;;;4979574;28;20158;-86
2021/07/16 00:54:27;;;;;;;28.77;17.38;;;13.30;99.90;;;;;;4974068;28;20173;-87
2021/07/16 00:57:15;;;;;;;28.55;16.63;;;13.20;99.90;;;;;;4985700;28;20505;-90
2021/07/16 01:00:04;;;;;;;29.70;18.92;;;13.20;99.90;;;;;;4978724;28;20046;-88
2021/07/16 01:02:52;;;;;;;27.15;17.33;;;13.30;99.90;;;;;;4993812;28;20188;-88
2021/07/16 01:05:42;;;;;;;26.83;18.30;;;13.20;99.90;;;;;;4976015;28;20043;-91
2021/07/16 01:08:29;;;;;;;27.52;17.08;;;13.20;99.90;;;;;;4995050;28;20097;-87
2021/07/16 01:11:16;;;;;;;28.48;16.95;;;13.20;99.90;;;;;;4976561;28;20097;-89
2021/07/16 01:14:05;;;;;;;27.95;17.75;;;13.10;99.90;;;;;;4990482;28;20472;-88
2021/07/16 01:16:52;;;;;;;30.13;17.95;;;13.00;99.90;;;;;;4965626;28;20121;-88
2021/07/16 01:20:00;;;;;;;25.33;16.15;;;13.00;99.90;;;;;;4983366;28;20061;-89
2021/07/16 01:22:49;;;;;;;30.00;14.88;;;12.90;99.90;;;;;;4989334;28;20085;-89
2021/07/16 01:25:36;;;;;;;23.13;16.02;;;12.90;99.90;;;;;;4992714;28;20441;-89
2021/07/16 01:28:23;;;;;;;23.35;15.68;;;12.90;99.90;;;;;;4968358;28;20475;-89
2021/07/16 01:31:11;;;;;;;27.60;17.33;;;12.90;99.90;;;;;;4959173;28;20607;-90
2021/07/16 01:33:59;;;;;;;28.75;19.02;;;13.00;99.90;;;;;;4986119;28;20090;-89
2021/07/16 01:36:46;;;;;;;40.88;21.00;;;13.10;99.90;;;;;;4995691;28;20046;-90
2021/07/16 01:39:36;;;;;;;38.85;19.67;;;13.10;99.90;;;;;;4997876;28;20061;-89
2021/07/16 01:42:35;;;;;;;35.15;19.58;;;13.10;99.90;;;;;;4981123;28;20058;-88
2021/07/16 01:45:33;;;;;;;31.52;18.60;;;13.20;99.90;;;;;;4993863;28;20053;-89
2021/07/16 01:48:20;;;;;;;29.80;18.80;;;13.10;99.90;;;;;;4982834;28;20158;-88
2021/07/16 01:51:08;;;;;;;30.92;18.80;;;13.10;99.90;;;;;;4967029;28;20420;-88
2021/07/16 01:53:57;;;;;;;33.75;20.02;;;13.20;99.90;;;;;;4999460;28;20088;-87
2021/07/16 01:56:45;;;;;;;34.13;20.05;;;13.20;99.90;;;;;;4991725;28;20062;-89
2021/07/16 01:59:33;;;;;;;32.05;19.17;;;13.20;99.90;;;;;;4973191;28;20050;-89
2021/07/16 02:02:20;;;;;;;29.42;19.27;;;13.20;99.90;;;;;;4994159;28;20423;-88
2021/07/16 02:05:08;;;;;;;84.18;19.92;;;13.30;99.90;;;;;;4969092;28;20133;-87
2021/07/16 02:08:03;;;;;;;31.83;18.92;;;13.20;99.90;;;;;;4988289;28;20129;-89
2021/07/16 02:10:57;;;;;;;30.75;18.65;;;13.20;99.90;;;;;;4986127;28;20121;-89
2021/07/16 02:13:45;;;;;;;30.33;19.05;;;13.20;99.90;;;;;;4994137;28;20534;-90
2021/07/16 02:16:32;;;;;;;35.33;17.80;;;13.20;99.90;;;;;;4987201;28;20050;-87
2021/07/16 02:19:21;;;;;;;25.67;16.40;;;13.10;99.90;;;;;;4988662;28;20082;-88
2021/07/16 02:22:10;;;;;;;28.42;17.50;;;13.10;99.90;;;;;;4982852;28;20046;-88
2021/07/16 02:24:57;;;;;;;27.15;17.20;;;13.00;99.90;;;;;;4992338;28;20101;-89
2021/07/16 02:27:51;;;;;;;28.85;16.65;;;13.10;99.90;;;;;;4978260;28;20440;-88
2021/07/16 02:30:38;;;;;;;21.60;14.90;;;13.00;99.90;;;;;;4995270;28;20070;-89
2021/07/16 02:33:26;;;;;;;23.02;14.75;;;13.00;99.90;;;;;;4986460;28;20144;-89
2021/07/16 02:36:17;;;;;;;20.63;13.50;;;13.00;99.90;;;;;;4987442;28;20482;-88
2021/07/16 02:39:05;;;;;;;24.83;13.82;;;12.90;99.90;;;;;;4984730;28;20046;-89
2021/07/16 02:41:52;;;;;;;20.65;13.45;;;13.00;99.90;;;;;;4983047;28;20577;-87
2021/07/16 02:44:40;;;;;;;21.52;12.85;;;13.00;99.90;;;;;;4995865;28;20042;-87
2021/07/16 02:47:29;;;;;;;25.17;12.75;;;13.00;99.90;;;;;;4985408;28;20073;-88
2021/07/16 02:50:22;;;;;;;26.50;13.05;;;13.00;99.90;;;;;;4965818;28;20054;-89
2021/07/16 02:53:11;;;;;;;17.55;11.98;;;12.90;99.90;;;;;;4976161;28;20456;-88
2021/07/16 02:55:58;;;;;;;17.52;12.38;;;12.90;99.90;;;;;;4976376;28;20050;-87
2021/07/16 02:58:46;;;;;;;25.83;14.85;;;12.90;99.90;;;;;;4985785;28;20042;-89
2021/07/16 03:01:52;;;;;;;24.88;15.05;;;12.90;99.90;;;;;;4979585;28;20714;-89
2021/07/16 03:04:41;;;;;;;26.35;15.70;;;12.90;99.90;;;;;;4987452;28;20081;-87
2021/07/16 03:07:28;;;;;;;33.22;15.45;;;12.90;99.90;;;;;;4988059;28;20185;-87
2021/07/16 03:10:20;;;;;;;30.60;17.48;;;12.90;99.90;;;;;;4968967;28;20451;-90
2021/07/16 03:13:13;;;;;;;25.35;15.57;;;13.00;99.90;;;;;;4983404;28;20464;-89
2021/07/16 03:16:02;;;;;;;;;;;13.00;99.90;;;;;;4980626;28;20050;-88
2021/07/16 03:18:50;;;;;;;21.88;14.50;;;13.00;99.90;;;;;;4980143;28;20413;-89
2021/07/16 03:21:37;;;;;;;29.08;16.80;;;13.00;99.90;;;;;;4979355;28;20117;-88
2021/07/16 03:24:25;;;;;;;32.10;18.33;;;13.00;99.90;;;;;;4980557;28;20487;-89
2021/07/16 03:27:12;;;;;;;29.80;18.10;;;13.00;99.90;;;;;;4966434;28;20104;-89
2021/07/16 03:29:59;;;;;;;36.92;18.58;;;13.00;99.90;;;;;;4978274;28;20372;-87
2021/07/16 03:32:50;;;;;;;28.55;17.25;;;13.00;99.90;;;;;;4984571;28;20046;-87
2021/07/16 03:35:37;;;;;;;28.10;17.70;;;13.00;99.90;;;;;;4983511;28;20096;-87
2021/07/16 03:38:25;;;;;;;26.48;17.02;;;13.00;99.90;;;;;;4989875;28;20102;-90
2021/07/16 03:41:13;;;;;;;24.75;16.33;;;13.00;99.90;;;;;;4979213;28;20150;-87
2021/07/16 03:44:00;;;;;;;30.55;18.88;;;13.00;99.90;;;;;;4993365;28;20137;-87
2021/07/16 03:46:47;;;;;;;32.65;18.95;;;13.00;99.90;;;;;;4993426;28;20527;-89
2021/07/16 03:49:34;;;;;;;30.58;19.40;;;13.00;99.90;;;;;;4979415;28;20042;-86
2021/07/16 03:52:21;;;;;;;28.90;18.48;;;13.00;99.90;;;;;;4965432;28;20117;-87
2021/07/16 03:55:10;;;;;;;36.05;20.23;;;13.00;99.90;;;;;;4990798;28;20180;-88
2021/07/16 03:58:00;;;;;;;24.83;17.38;;;13.00;99.90;;;;;;4992019;28;20046;-87
2021/07/16 04:00:50;;;;;;;35.72;19.15;;;13.00;99.90;;;;;;4988212;28;20057;-88
2021/07/16 04:03:40;;;;;;;30.50;17.60;;;13.00;99.90;;;;;;4978623;28;20052;-90
2021/07/16 04:06:27;;;;;;;28.70;17.75;;;13.00;99.90;;;;;;4991163;28;20038;-87
2021/07/16 04:09:30;;;;;;;31.60;18.20;;;13.10;99.90;;;;;;4964463;28;20117;-88
2021/07/16 04:12:19;;;;;;;30.85;18.63;;;13.10;99.90;;;;;;4971971;28;20132;-87
2021/07/16 04:24:07;;;;;;;35.75;20.33;;;13.30;99.90;;;;;;4988687;28;20022;-86
2021/07/16 04:31:27;;;;;;;35.20;20.10;;;13.40;99.90;;;;;;4931822;29;20478;-86
2021/07/16 04:39:07;;;;;;;40.88;22.10;;;13.60;99.90;;;;;;4821032;29;20125;-86
2021/07/16 04:45:58;;;;;;;54.95;25.30;;;13.90;99.90;;;;;;4806475;29;20055;-85
2021/07/16 04:48:45;;;;;;;63.50;26.98;;;14.10;99.90;;;;;;4879158;28;20055;-84
2021/07/16 04:51:35;;;;;;;72.10;27.58;;;14.20;99.90;;;;;;4976908;28;20039;-88
2021/07/16 04:54:22;;;;;;;61.15;26.40;;;14.20;99.90;;;;;;4962896;28;20054;-86
2021/07/16 04:57:11;;;;;;;59.55;25.65;;;14.20;99.90;;;;;;4966805;28;20051;-86
2021/07/16 04:59:58;;;;;;;47.28;24.23;;;14.20;99.90;;;;;;4978222;28;20130;-87
2021/07/16 05:02:46;;;;;;;59.50;27.08;;;14.10;99.90;;;;;;4978155;28;20047;-87
2021/07/16 05:05:35;;;;;;;46.70;23.75;;;14.10;99.90;;;;;;4986086;28;20519;-86
2021/07/16 05:08:25;;;;;;;42.22;23.63;;;14.20;99.90;;;;;;4977265;28;20047;-87
2021/07/16 05:11:13;;;;;;;47.97;25.80;;;14.20;99.90;;;;;;4981472;28;20095;-88
2021/07/16 05:14:05;;;;;;;49.88;25.70;;;14.30;99.90;;;;;;4975283;28;20078;-87
2021/07/16 05:16:52;;;;;;;46.08;24.73;;;14.40;99.90;;;;;;4974800;28;20057;-88
2021/07/16 05:19:39;;;;;;;60.53;28.33;;;14.50;99.90;;;;;;4966541;28;20198;-87
2021/07/16 05:22:27;;;;;;;47.10;27.27;;;14.60;99.90;;;;;;4970797;28;20186;-87
2021/07/16 05:25:15;;;;;;;44.60;25.83;;;14.80;99.90;;;;;;4975170;28;20391;-87
2021/07/16 05:28:03;;;;;;;43.50;24.38;;;14.90;99.90;;;;;;4978244;28;20483;-87
2021/07/16 05:30:50;;;;;;;39.85;23.05;;;15.00;99.90;;;;;;4971396;28;20047;-87
2021/07/16 05:33:40;;;;;;;38.75;23.50;;;15.00;99.90;;;;;;4985008;28;20169;-88
2021/07/16 05:36:27;;;;;;;32.92;21.98;;;15.10;99.90;;;;;;4959016;28;20084;-87
2021/07/16 05:39:15;;;;;;;30.88;20.30;;;15.10;99.90;;;;;;4964525;28;20050;-87
2021/07/16 05:42:03;;;;;;;33.35;20.83;;;15.20;99.90;;;;;;4975671;28;20082;-87
2021/07/16 05:44:51;;;;;;;24.70;17.10;;;15.30;99.90;;;;;;4979258;28;20137;-86
2021/07/16 05:47:38;;;;;;;22.75;16.80;;;15.40;99.90;;;;;;4995441;28;20144;-88
2021/07/16 05:50:26;;;;;;;24.38;16.83;;;15.30;99.90;;;;;;4998049;28;20068;-89
2021/07/16 05:53:15;;;;;;;27.42;17.65;;;15.20;99.90;;;;;;4974126;28;20144;-88
2021/07/16 05:56:05;;;;;;;22.08;15.70;;;15.20;99.90;;;;;;4991077;28;20124;-88
2021/07/16 05:58:52;;;;;;;22.10;16.08;;;15.20;99.90;;;;;;4978568;28;20061;-88
2021/07/16 06:01:42;;;;;;;23.63;17.38;;;15.40;99.90;;;;;;4995291;28;20150;-88
2021/07/16 06:04:30;;;;;;;21.10;16.30;;;15.50;99.90;;;;;;4981796;28;20125;-88
2021/07/16 06:07:18;;;;;;;22.55;16.42;;;15.50;99.90;;;;;;4995261;28;20205;-88
2021/07/16 06:10:06;;;;;;;22.40;16.40;;;15.50;99.90;;;;;;4996298;28;20043;-88
2021/07/16 06:12:54;;;;;;;20.80;14.15;;;15.50;99.90;;;;;;4985616;28;20140;-87
2021/07/16 06:15:44;;;;;;;23.75;15.15;;;15.70;99.90;;;;;;4993360;28;20132;-86
2021/07/16 06:18:31;;;;;;;19.85;14.95;;;15.80;99.90;;;;;;4978535;28;20122;-88
2021/07/16 06:21:19;;;;;;;17.58;13.32;;;15.70;99.90;;;;;;4995721;28;20162;-88
2021/07/16 06:24:08;;;;;;;18.90;13.02;;;15.60;99.90;;;;;;4994440;28;20054;-89
2021/07/16 06:26:56;;;;;;;19.02;14.35;;;15.60;99.90;;;;;;4987192;28;20454;-88
2021/07/16 06:29:44;;;;;;;19.95;14.80;;;15.60;99.90;;;;;;4994372;28;20387;-86
2021/07/16 06:32:31;;;;;;;17.70;14.02;;;15.80;99.90;;;;;;4973665;28;20128;-87
2021/07/16 06:35:21;;;;;;;16.77;11.98;;;16.10;99.90;;;;;;5009294;28;20050;-88
2021/07/16 06:38:08;;;;;;;15.50;12.30;;;16.30;99.90;;;;;;4996492;28;20046;-86
2021/07/16 06:40:56;;;;;;;16.35;11.48;;;16.60;99.90;;;;;;4979992;28;20062;-89
2021/07/16 06:43:44;;;;;;;16.65;12.35;;;16.60;99.90;;;;;;4990967;28;20121;-85
2021/07/16 06:46:32;;;;;;;14.02;10.55;;;16.80;99.90;;;;;;4988111;28;20046;-84
2021/07/16 06:49:20;;;;;;;12.27;10.23;;;17.00;99.90;;;;;;4989811;28;20057;-87
2021/07/16 06:52:08;;;;;;;16.45;11.07;;;17.10;99.90;;;;;;4984198;28;20459;-89
2021/07/16 06:54:55;;;;;;;11.05;9.93;;;17.10;99.90;;;;;;4960707;28;20057;-88
2021/07/16 06:57:42;;;;;;;11.63;10.02;;;17.10;99.90;;;;;;4991884;28;20046;-87
2021/07/16 07:00:31;;;;;;;11.70;9.88;;;17.20;99.90;;;;;;4992941;28;20459;-86
2021/07/16 07:03:25;;;;;;;13.05;10.27;;;17.30;99.90;;;;;;4984431;28;20486;-89
2021/07/16 07:06:18;;;;;;;14.23;10.07;;;17.70;99.90;;;;;;4992433;28;20043;-89
2021/07/16 07:09:05;;;;;;;12.68;8.80;;;17.90;99.90;;;;;;4990530;28;20079;-90
2021/07/16 07:11:53;;;;;;;11.57;8.63;;;18.20;99.90;;;;;;4992842;28;20039;-90
2021/07/16 07:14:40;;;;;;;10.30;9.05;;;18.10;99.90;;;;;;4977727;28;20352;-90
2021/07/16 07:17:30;;;;;;;9.95;8.40;;;17.90;99.90;;;;;;4979217;28;20095;-88
2021/07/16 07:20:18;;;;;;;9.15;8.25;;;17.90;99.90;;;;;;4979007;28;20046;-90
2021/07/16 07:23:05;;;;;;;10.57;9.48;;;18.00;99.90;;;;;;4971080;28;20042;-89
2021/07/16 07:25:55;;;;;;;9.10;7.20;;;18.10;99.90;;;;;;4987015;28;20124;-90
2021/07/16 07:28:43;;;;;;;7.85;6.97;;;18.10;99.90;;;;;;4958578;28;20692;-88
2021/07/16 07:31:31;;;;;;;9.50;7.05;;;18.00;99.90;;;;;;4977801;28;20062;-88
2021/07/16 07:34:19;;;;;;;8.18;6.85;;;18.00;99.90;;;;;;4972048;28;20038;-89
2021/07/16 07:37:17;;;;;;;8.07;6.93;;;18.00;99.90;;;;;;4988463;28;20151;-88
2021/07/16 07:40:07;;;;;;;8.68;7.35;;;18.30;99.90;;;;;;4978211;28;20122;-88
2021/07/16 07:42:55;;;;;;;7.00;5.80;;;18.50;99.90;;;;;;4993060;28;20113;-87
2021/07/16 07:45:42;;;;;;;9.02;6.18;;;18.50;99.90;;;;;;4989054;28;20153;-89
2021/07/16 07:48:30;;;;;;;6.55;5.95;;;18.50;99.90;;;;;;4994903;28;20046;-87
2021/07/16 07:51:19;;;;;;;9.32;5.90;;;18.50;99.90;;;;;;4978774;28;20042;-88
2021/07/16 07:54:07;;;;;;;7.05;6.13;;;18.60;99.90;;;;;;4993761;28;20042;-88
2021/07/16 07:56:54;;;;;;;6.07;5.47;;;18.80;99.90;;;;;;4986766;28;20053;-88
2021/07/16 07:59:43;;;;;;;5.88;5.38;;;19.00;99.90;;;;;;4975097;28;20480;-89
2021/07/16 08:02:30;;;;;;;7.80;4.55;;;19.10;99.90;;;;;;4979182;28;20090;-89
2021/07/16 08:05:18;;;;;;;4.80;3.40;;;19.10;99.90;;;;;;4973269;28;20042;-90
2021/07/16 08:08:06;;;;;;;4.20;3.47;;;19.60;99.90;;;;;;4994231;28;20053;-91
2021/07/16 08:10:55;;;;;;;4.30;2.95;;;20.50;99.90;;;;;;4977627;28;20085;-89
2021/07/16 08:13:43;;;;;;;4.50;3.60;;;20.80;99.90;;;;;;4992051;28;20505;-90
2021/07/16 08:16:30;;;;;;;5.65;3.47;;;20.70;99.90;;;;;;4989167;28;20058;-90
2021/07/16 08:19:20;;;;;;;4.55;3.10;;;20.60;99.90;;;;;;4981097;28;20038;-89
2021/07/16 08:22:08;;;;;;;4.15;3.40;;;20.50;99.90;;;;;;4987283;28;20104;-87
2021/07/16 08:24:55;;;;;;;5.38;3.20;;;20.70;99.90;;;;;;4978178;28;20456;-91
2021/07/16 08:27:47;;;;;;;3.45;3.15;;;20.70;99.90;;;;;;4995088;28;20157;-89
2021/07/16 08:30:35;;;;;;;2.85;2.42;;;21.10;99.90;;;;;;4991582;28;20057;-91
2021/07/16 08:33:27;;;;;;;3.47;2.83;;;21.30;99.90;;;;;;4990999;28;20412;-90
2021/07/16 08:36:14;;;;;;;4.07;2.60;;;20.90;99.90;;;;;;4972253;28;20042;-90
2021/07/16 08:39:06;;;;;;;4.22;2.30;;;21.10;99.90;;;;;;4991233;28;20042;-89
2021/07/16 08:41:54;;;;;;;3.38;2.60;;;21.80;99.90;;;;;;4994083;28;20042;-89
2021/07/16 08:44:45;;;;;;;2.72;2.20;;;22.50;99.90;;;;;;4969266;28;20094;-87
2021/07/16 08:47:33;;;;;;;2.95;1.80;;;22.90;99.90;;;;;;4978628;28;20136;-90
2021/07/16 08:50:23;;;;;;;3.08;2.40;;;22.70;99.90;;;;;;4992284;28;20197;-88
2021/07/16 08:53:12;;;;;;;4.28;2.55;;;22.40;99.90;;;;;;4977980;28;20046;-85
2021/07/16 08:56:01;;;;;;;2.28;2.08;;;22.10;99.90;;;;;;4989298;28;20402;-85
2021/07/16 08:58:51;;;;;;;3.08;2.50;;;21.80;99.90;;;;;;4990223;28;20129;-87
2021/07/16 09:01:46;;;;;;;2.90;2.38;;;21.60;99.90;;;;;;4992316;28;20140;-91
2021/07/16 09:04:40;;;;;;;4.45;2.53;;;21.60;99.90;;;;;;4992796;28;20050;-89
2021/07/16 09:07:41;;;;;;;3.20;2.67;;;21.80;99.90;;;;;;4993098;28;20042;-90
2021/07/16 09:10:28;;;;;;;2.92;2.42;;;22.00;99.90;;;;;;4979316;28;20034;-88
2021/07/16 09:13:17;;;;;;;2.97;2.67;;;22.20;99.90;;;;;;4988539;28;20129;-89
2021/07/16 09:16:07;;;;;;;2.78;2.40;;;22.70;99.90;;;;;;4987596;28;20043;-88
2021/07/16 09:19:00;;;;;;;2.47;2.28;;;23.50;99.90;;;;;;4979430;28;20061;-91
2021/07/16 09:22:12;;;;;;;3.22;2.10;;;24.40;99.90;;;;;;4968970;28;20053;-92
2021/07/16 09:25:06;;;;;;;2.55;1.90;;;25.60;99.90;;;;;;4992873;28;20049;-90
2021/07/16 09:27:53;;;;;;;2.72;2.10;;;25.40;98.80;;;;;;4996380;28;20042;-90
2021/07/16 09:30:44;;;;;;;2.33;2.13;;;25.20;97.80;;;;;;4992841;28;20116;-91
2021/07/16 09:34:01;;;;;;;1.90;1.50;;;25.60;99.90;;;;;;4979826;28;20518;-92
2021/07/16 09:36:53;;;;;;;2.75;1.83;;;26.60;94.40;;;;;;4979494;28;20042;-87
2021/07/16 09:39:54;;;;;;;3.20;1.70;;;27.30;90.10;;;;;;4991314;28;20376;-90
2021/07/16 09:43:05;;;;;;;;;;;;;;;;;;;;;
2021/07/16 09:46:07;;;;;;;4.00;1.95;;;26.20;89.50;;;;;;4975740;28;20376;-88
2021/07/16 09:49:12;;;;;;;2.05;1.88;;;25.70;92.40;;;;;;4976658;28;20389;-91
2021/07/16 09:52:12;;;;;;;1.63;1.52;;;25.80;93.80;;;;;;4962255;28;20486;-90
2021/07/16 09:55:11;;;;;;;2.90;1.95;;;26.10;90.70;;;;;;4971953;28;20047;-92
2021/07/16 09:58:04;;;;;;;2.20;2.00;;;25.40;92.10;;;;;;4984594;28;20476;-92
2021/07/16 10:00:55;;;;;;;2.65;1.65;;;26.40;91.30;;;;;;4962693;28;20046;-89
2021/07/16 10:03:43;;;;;;;2.30;1.40;;;27.40;90.30;;;;;;4966568;28;20388;-92
2021/07/16 10:06:30;;;;;;;2.58;1.75;;;27.40;82.70;;;;;;4976615;28;20484;-90
2021/07/16 10:09:19;;;;;;;1.45;1.35;;;27.00;83.80;;;;;;4974829;28;20448;-89
2021/07/16 10:12:07;;;;;;;0.98;0.90;;;27.20;82.00;;;;;;4969290;28;20058;-91
2021/07/16 10:15:05;;;;;;;1.23;1.10;;;27.70;78.30;;;;;;4976395;28;20409;-93
2021/07/16 10:17:53;;;;;;;3.22;1.10;;;28.10;75.70;;;;;;4974541;28;20054;-91
2021/07/16 10:20:41;;;;;;;0.98;0.95;;;27.60;74.60;;;;;;4955777;28;20054;-93
2021/07/16 10:23:29;;;;;;;1.40;0.90;;;26.80;77.80;;;;;;4963598;28;20058;-89
2021/07/16 10:26:25;;;;;;;1.60;1.15;;;26.00;79.20;;;;;;4963419;28;20039;-91
2021/07/16 10:29:46;;;;;;;1.30;1.20;;;25.10;83.70;;;;;;4964231;28;20460;-92
2021/07/16 10:32:48;;;;;;;1.50;1.40;;;24.20;90.10;;;;;;4963167;28;20043;-93
2021/07/16 10:35:38;;;;;;;3.00;1.40;;;23.40;92.30;;;;;;4975041;28;20105;-92
2021/07/16 10:38:33;;;;;;;2.67;1.65;;;22.90;95.10;;;;;;4959123;28;20042;-90
2021/07/16 10:41:31;;;;;;;2.95;1.52;;;22.60;95.90;;;;;;4972056;28;20042;-89
2021/07/16 10:44:47;;;;;;;1.70;1.27;;;22.30;98.60;;;;;;4984367;28;20050;-88
2021/07/16 10:47:39;;;;;;;4.55;1.90;;;22.00;99.90;;;;;;4995363;28;20047;-90
2021/07/16 10:50:27;;;;;;;3.20;1.83;;;22.00;99.90;;;;;;4980397;28;20415;-89
2021/07/16 10:53:17;;;;;;;1.70;1.45;;;22.00;99.90;;;;;;4997690;28;20050;-90
2021/07/16 10:56:10;;;;;;;2.45;1.60;;;22.00;99.90;;;;;;4997103;28;20142;-89
2021/07/16 10:58:59;;;;;;;;;;;22.10;99.90;;;;;;4984655;28;20479;-89
2021/07/16 11:01:49;;;;;;;2.42;1.48;;;22.20;99.90;;;;;;4969992;28;19926;-90
2021/07/16 11:04:37;;;;;;;2.22;1.30;;;23.40;99.90;;;;;;4988895;28;20053;-91
2021/07/16 11:07:39;;;;;;;1.63;1.27;;;25.00;99.90;;;;;;5009771;28;20455;-90
2021/07/16 11:10:54;;;;;;;1.60;1.50;;;26.80;91.50;;;;;;4986065;28;20050;-92
2021/07/16 11:13:59;;;;;;;1.05;1.00;;;27.20;83.40;;;;;;4971768;28;20120;-92
2021/07/16 11:16:47;;;;;;;2.70;1.30;;;26.50;78.60;;;;;;4978858;28;20057;-91
2021/07/16 11:19:36;;;;;;;1.10;0.90;;;26.30;82.90;;;;;;4999898;28;20117;-89
2021/07/16 11:22:26;;;;;;;2.63;1.20;;;25.70;80.40;;;;;;4979765;28;20046;-91
2021/07/16 11:25:17;;;;;;;2.22;1.20;;;24.90;82.60;;;;;;4997783;28;20431;-91
2021/07/16 11:28:17;;;;;;;2.00;1.15;;;24.70;87.80;;;;;;4981948;28;20042;-89
2021/07/16 11:31:08;;;;;;;1.52;1.00;;;24.40;88.20;;;;;;4995938;28;20125;-90
2021/07/16 11:33:56;;;;;;;1.00;1.00;;;24.00;88.10;;;;;;4981021;28;20046;-90
2021/07/16 11:36:54;;;;;;;1.55;1.10;;;23.60;90.90;;;;;;4992762;28;20192;-85
2021/07/16 11:39:41;;;;;;;2.42;1.00;;;23.30;92.70;;;;;;4992044;28;20120;-85
2021/07/16 11:42:30;;;;;;;2.55;1.10;;;23.20;92.70;;;;;;4977836;28;20128;-86
2021/07/16 11:45:24;;;;;;;5.28;1.73;;;23.40;93.10;;;;;;4988966;28;20407;-86
2021/07/16 11:48:18;;;;;;;1.98;1.42;;;23.40;92.70;;;;;;4988116;28;20042;-85
2021/07/16 11:51:06;;;;;;;1.02;0.90;;;23.90;94.80;;;;;;4977956;28;20049;-86
2021/07/16 11:53:54;;;;;;;1.40;1.17;;;25.20;90.90;;;;;;4992501;28;20043;-87
2021/07/16 11:56:41;;;;;;;1.25;1.15;;;25.60;88.80;;;;;;4991140;28;20042;-86
2021/07/16 11:59:28;;;;;;;2.67;1.20;;;25.30;86.80;;;;;;4977078;28;20443;-87
2021/07/16 12:02:20;;;;;;;1.77;1.00;;;25.70;87.20;;;;;;4974658;28;20045;-87
2021/07/16 12:05:08;;;;;;;0.98;0.98;;;26.10;86.70;;;;;;4995514;28;20042;-87
2021/07/16 12:07:57;;;;;;;1.48;1.27;;;26.10;85.00;;;;;;4996342;28;20448;-87
2021/07/16 12:10:47;;;;;;;2.28;1.15;;;25.70;84.90;;;;;;4994043;28;20043;-91
2021/07/16 12:13:45;;;;;;;1.30;1.20;;;25.30;87.30;;;;;;4970116;28;20101;-93
2021/07/16 12:21:04;;;;;;;1.80;1.17;;;24.50;90.00;;;;;;4987121;28;20165;-94
2021/07/16 12:24:02;;;;;;;2.47;1.40;;;24.00;92.50;;;;;;4964520;28;20068;-92
2021/07/16 12:27:09;;;;;;;2.75;1.55;;;23.70;94.20;;;;;;4980391;28;20089;-93
2021/07/16 12:30:08;;;;;;;1.70;1.20;;;23.70;94.40;;;;;;4999379;28;20054;-91
2021/07/16 12:33:16;;;;;;;1.55;1.45;;;23.40;95.30;;;;;;4991636;28;20039;-92
2021/07/16 12:36:13;;;;;;;1.77;1.25;;;23.20;96.50;;;;;;4988720;28;20124;-91
2021/07/16 12:39:42;;;;;;;1.40;1.30;;;22.80;98.30;;;;;;4991211;28;20216;-93
2021/07/16 12:42:37;;;;;;;1.50;1.40;;;22.60;99.90;;;;;;4992974;28;20045;-91
2021/07/16 12:45:56;;;;;;;1.35;1.10;;;22.50;99.90;;;;;;4979402;28;20098;-91
2021/07/16 12:48:43;;;;;;;1.52;1.42;;;22.60;99.90;;;;;;4989753;28;20173;-91
2021/07/16 12:51:37;;;;;;;1.42;1.17;;;22.80;99.90;;;;;;4975784;28;20085;-90
2021/07/16 12:54:25;;;;;;;2.85;1.42;;;23.10;99.90;;;;;;4992425;28;20152;-91
2021/07/16 12:57:23;;;;;;;2.47;1.60;;;23.10;99.90;;;;;;4991946;28;20118;-92
2021/07/16 13:00:49;;;;;;;1.80;1.70;;;22.80;99.90;;;;;;4977813;28;20042;-91
2021/07/16 13:03:42;;;;;;;2.03;1.65;;;22.20;99.90;;;;;;4970066;28;20042;-91
2021/07/16 13:07:24;;;;;;;2.35;2.17;;;21.60;99.90;;;;;;4937125;29;20134;-92
2021/07/16 13:10:24;;;;;;;3.35;1.92;;;21.20;99.90;;;;;;4939607;29;20063;-90
2021/07/16 13:13:17;;;;;;;1.80;1.70;;;21.10;99.90;;;;;;4939518;28;20044;-91
2021/07/16 13:16:11;;;;;;;2.92;1.77;;;21.10;99.90;;;;;;4938927;29;20134;-92
2021/07/16 13:19:00;;;;;;;2.00;1.80;;;21.20;99.90;;;;;;4938971;29;20048;-91
2021/07/16 13:22:11;;;;;;;1.92;1.77;;;21.20;99.90;;;;;;4938448;29;20119;-91
2021/07/16 13:25:02;;;;;;;2.20;1.70;;;21.40;99.90;;;;;;4923452;29;20091;-92
2021/07/16 13:27:50;;;;;;;2.00;1.65;;;21.60;99.90;;;;;;4930603;29;20130;-92
2021/07/16 13:30:45;;;;;;;4.07;1.90;;;21.90;99.90;;;;;;4945552;29;20221;-91
2021/07/16 13:33:36;;;;;;;4.60;1.70;;;22.20;99.90;;;;;;4939933;29;20081;-91
2021/07/16 13:36:48;;;;;;;2.08;1.70;;;22.40;99.90;;;;;;4956059;28;20040;-91
2021/07/16 13:39:46;;;;;;;4.55;1.75;;;22.50;99.90;;;;;;4986529;28;20140;-92
2021/07/16 13:43:16;;;;;;;2.00;1.80;;;22.60;99.90;;;;;;5009504;28;20057;-91
2021/07/16 13:46:02;;;;;;;3.88;1.70;;;23.20;99.90;;;;;;4971490;28;20082;-91
2021/07/16 13:48:51;;;;;;;1.80;1.70;;;23.60;99.90;;;;;;4980641;28;20059;-92
2021/07/16 13:51:57;;;;;;;6.38;1.98;;;23.50;99.90;;;;;;4976481;28;20035;-92
2021/07/16 13:54:52;;;;;;;1.85;1.70;;;23.00;99.90;;;;;;4953775;28;20043;-91
2021/07/16 13:57:41;;;;;;;2.88;1.88;;;22.70;99.90;;;;;;4963018;28;20114;-91
2021/07/16 14:00:29;;;;;;;2.35;1.70;;;22.50;99.90;;;;;;4973274;28;20049;-89
2021/07/16 14:03:16;;;;;;;1.88;1.77;;;22.40;99.90;;;;;;4977880;28;20047;-90
2021/07/16 14:06:03;;;;;;;4.07;1.75;;;22.50;99.90;;;;;;4975252;28;20061;-91
2021/07/16 14:08:51;;;;;;;2.08;1.60;;;22.30;99.90;;;;;;4976579;28;20101;-90
2021/07/16 14:11:41;;;;;;;2.30;1.48;;;22.20;99.90;;;;;;4960616;28;20469;-91
2021/07/16 14:14:28;;;;;;;1.65;1.55;;;22.20;99.90;;;;;;4970540;28;20042;-90
2021/07/16 14:17:18;;;;;;;1.60;1.50;;;22.20;99.90;;;;;;4958915;28;20535;-90
2021/07/16 14:20:10;;;;;;;2.22;1.50;;;22.20;99.90;;;;;;4977023;28;20106;-92
2021/07/16 14:23:02;;;;;;;1.75;1.65;;;22.30;99.90;;;;;;4972115;28;20043;-92
2021/07/16 14:25:51;;;;;;;1.77;1.45;;;22.30;99.90;;;;;;4976555;28;20129;-93
2021/07/16 14:28:39;;;;;;;2.08;1.23;;;22.50;99.90;;;;;;4965353;28;20186;-92
2021/07/16 14:31:26;;;;;;;1.25;1.15;;;22.90;99.90;;;;;;4968400;28;20051;-90
2021/07/16 14:34:15;;;;;;;1.38;1.13;;;23.30;99.90;;;;;;4965705;28;20073;-92
2021/07/16 14:37:04;;;;;;;3.00;1.30;;;24.30;99.90;;;;;;4962837;28;20057;-92
2021/07/16 14:40:13;;;;;;;1.10;1.00;;;26.20;99.90;;;;;;4959648;28;20436;-93
2021/07/16 14:43:23;;;;;;;;;;;;;;;;;;;;;
2021/07/16 14:46:20;;;;;;;1.23;0.65;;;29.50;90.10;;;;;;4996307;28;20049;-92
2021/07/16 14:49:10;;;;;;;0.98;0.90;;;30.40;73.30;;;;;;4978468;28;20112;-92
2021/07/16 14:56:44;;;;;;;3.75;0.60;;;31.30;61.20;;;;;;4892367;29;20025;-91
2021/07/16 15:00:32;;;;;;;0.80;0.68;;;31.20;57.00;;;;;;4815693;29;20061;-92
2021/07/16 15:04:13;;;;;;;2.60;0.50;;;30.90;55.70;;;;;;4819579;29;20058;-90
2021/07/16 15:36:33;;;;;;;5.75;1.20;;;26.50;67.60;;;;;;4916528;29;19911;-89
2021/07/16 15:39:21;;;;;;;2.42;1.40;;;26.40;69.50;;;;;;4969269;28;20058;-90
2021/07/16 15:42:08;;;;;;;3.65;1.42;;;26.10;69.30;;;;;;4982014;28;20468;-89
2021/07/16 15:44:58;;;;;;;3.72;1.33;;;25.70;71.70;;;;;;4988919;28;20157;-91
2021/07/16 15:48:02;;;;;;;0.80;0.75;;;25.20;74.20;;;;;;4999044;28;20051;-92